Pagina principale
METAR-TAF:

METAR-TAF

Aeroporti :

Memmingen, Germania

latitudine: 47-59-33N, longitudine: 10-14-37E, altezza: 633 m

Osservazione

Il bollettino è stato emesso 17 minuti fa, alle 14:20 UTC
Vento 9 kt da est/nord-est, variando fra nord-est e est
Temperature 24°C
Umidità 41%
Pressione 1015 hPa
Visibilità 10 km o più
nessuna nube inferiore a 1500 m e nessun cumulonembo

METAR: EDJA 131420Z 06009KT 040V100 CAVOK 24/10 Q1015

Ora: 16:37 (14:37 UTC)

Previsione

Il bollettino è stato emesso 3 ore e 37 minuti fa, alle 11:00 UTC
Previsione valida dal 13 alle 12 UTC al 13 alle 21 UTC
Vento 10 kt da est/nord-est
Visibilità 10 km o più
nessuna nube inferiore a 1500 m e nessun cumulonembo
Evoluzione graduale
dal 13 alle 16 UTC al 13 alle 18 UTC
Vento 5 kt da est

TAF: EDJA 131100Z 1312/1321 07010KT CAVOK BECMG 1316/1318 09005KT

Osservazioni e previsioni meteorologiche di più di 4000 aeroporti (messaggi METAR e TAF).

Le stazioni disponibili sono rappresentate dai dischi gialli e rossi sulla carta.

Puntare il mouse per vedere il nome della stazione.

Clicca sopra per visualizzare le osservazioni e previsioni meteorologiche.

Per cambiare la mappa : fare clic sui pulsanti verdi con una croce nera per ingrandire, il pulsante verde con un trattino per diminuire, o sulla freccia verde per le mappe adiacenti.


METAR-TAF: